createdAt,value
2019-02-27T00:02:23.414Z,17.40
2019-02-27T00:04:55.310Z,15.80
2019-02-27T00:07:31.043Z,16.73
2019-02-27T00:10:06.118Z,18.67
2019-02-27T00:12:40.940Z,17.47
2019-02-27T00:15:14.960Z,16.20
2019-02-27T00:17:51.145Z,16.17
2019-02-27T00:20:23.821Z,17.42
2019-02-27T00:23:01.547Z,18.95
2019-02-27T00:25:35.874Z,19.73
2019-02-27T00:28:03.930Z,20.27
2019-02-27T00:30:37.957Z,18.02
2019-02-27T00:33:06.667Z,16.30
2019-02-27T00:35:39.570Z,17.70
2019-02-27T00:38:10.366Z,17.33
2019-02-27T00:40:43.187Z,18.45
2019-02-27T00:43:19.882Z,18.60
2019-02-27T00:45:51.061Z,16.54
2019-02-27T00:48:25.992Z,16.33
2019-02-27T00:50:54.892Z,13.47
2019-02-27T00:53:25.248Z,14.53
2019-02-27T00:55:57.297Z,18.07
2019-02-27T00:58:29.262Z,16.13
2019-02-27T01:00:59.700Z,13.60
2019-02-27T01:03:31.964Z,17.48
2019-02-27T01:06:05.778Z,16.13
2019-02-27T01:08:42.083Z,14.80
2019-02-27T01:11:18.134Z,15.70
2019-02-27T01:13:46.070Z,15.30
2019-02-27T01:16:18.362Z,15.13
2019-02-27T01:18:51.036Z,15.65
2019-02-27T01:21:23.190Z,16.03
2019-02-27T01:23:53.710Z,15.65
2019-02-27T01:26:25.261Z,16.40
2019-02-27T01:29:03.032Z,15.60
2019-02-27T01:31:47.325Z,18.77
2019-02-27T01:34:11.110Z,18.82
2019-02-27T01:36:41.677Z,19.23
2019-02-27T01:39:14.625Z,18.90
2019-02-27T01:41:45.010Z,21.07
2019-02-27T01:44:24.421Z,18.10
2019-02-27T01:46:52.113Z,19.70
2019-02-27T01:49:27.175Z,16.70
2019-02-27T01:52:02.090Z,17.90
2019-02-27T01:54:31.456Z,17.80
2019-02-27T01:57:02.850Z,16.80
2019-02-27T01:59:38.065Z,17.23
2019-02-27T02:02:08.322Z,14.87
2019-02-27T02:04:42.700Z,18.48
2019-02-27T02:07:19.630Z,17.83
2019-02-27T02:09:52.183Z,18.55
2019-02-27T02:12:33.481Z,17.03
2019-02-27T02:15:17.292Z,15.85
2019-02-27T02:18:32.512Z,21.48
2019-02-27T02:21:37.201Z,16.17
2019-02-27T02:24:30.734Z,16.80
2019-02-27T02:27:36.122Z,18.12
2019-02-27T02:30:45.945Z,16.07
2019-02-27T02:33:40.127Z,18.03
2019-02-27T02:36:36.902Z,16.17
2019-02-27T02:39:47.210Z,16.37
2019-02-27T02:42:59.125Z,15.80
2019-02-27T02:45:40.003Z,18.17
2019-02-27T02:49:06.210Z,21.75
2019-02-27T02:51:40.031Z,17.40
2019-02-27T02:54:55.079Z,17.60
2019-02-27T02:57:58.988Z,16.63
2019-02-27T03:01:04.409Z,16.50
2019-02-27T03:04:12.476Z,19.90
2019-02-27T03:07:21.928Z,14.83
2019-02-27T03:10:25.335Z,15.83
2019-02-27T03:13:42.041Z,14.80
2019-02-27T03:16:55.581Z,12.93
2019-02-27T03:19:55.817Z,14.67
2019-02-27T03:22:54.318Z,14.67
2019-02-27T03:25:55.078Z,12.93
2019-02-27T03:29:04.368Z,13.53
2019-02-27T03:32:12.076Z,12.60
2019-02-27T03:35:27.447Z,13.83
2019-02-27T03:38:14.956Z,11.93
2019-02-27T03:41:13.766Z,11.10
2019-02-27T03:44:10.064Z,11.30
2019-02-27T03:47:23.445Z,12.20
2019-02-27T03:50:23.127Z,14.80
2019-02-27T03:53:29.835Z,13.73
2019-02-27T03:56:19.700Z,15.20
2019-02-27T03:59:42.497Z,15.00
2019-02-27T04:02:49.601Z,13.10
2019-02-27T04:05:58.127Z,16.03
2019-02-27T04:08:57.101Z,13.50
2019-02-27T04:11:28.256Z,13.97
2019-02-27T04:14:04.738Z,12.60
2019-02-27T04:16:34.023Z,13.50
2019-02-27T04:19:12.976Z,14.07
2019-02-27T04:21:40.246Z,12.73
2019-02-27T04:24:13.672Z,14.40
2019-02-27T04:26:44.286Z,13.62
2019-02-27T04:29:14.698Z,14.40
2019-02-27T04:31:46.482Z,14.87
2019-02-27T04:34:16.775Z,12.20
2019-02-27T04:36:52.614Z,13.27
2019-02-27T04:39:22.948Z,13.10
2019-02-27T04:41:55.157Z,13.63
2019-02-27T04:44:30.168Z,12.50
2019-02-27T04:47:00.513Z,10.87
2019-02-27T04:49:34.818Z,11.43
2019-02-27T04:52:07.106Z,11.73
2019-02-27T04:54:41.274Z,11.00
2019-02-27T04:57:11.060Z,12.10
2019-02-27T04:59:41.649Z,13.33
2019-02-27T05:02:14.565Z,9.30
2019-02-27T05:04:45.727Z,13.30
2019-02-27T05:07:20.915Z,13.67
2019-02-27T05:09:51.901Z,14.50
2019-02-27T05:12:23.441Z,12.13
2019-02-27T05:14:55.615Z,8.55
2019-02-27T05:17:28.432Z,10.20
2019-02-27T05:20:05.585Z,9.70
2019-02-27T05:22:37.038Z,10.50
2019-02-27T05:25:19.133Z,13.10
2019-02-27T05:27:49.539Z,11.20
2019-02-27T05:30:21.788Z,13.53
2019-02-27T05:32:52.080Z,13.13
2019-02-27T05:35:24.263Z,11.87
2019-02-27T05:37:56.857Z,12.10
2019-02-27T05:40:30.918Z,13.90
2019-02-27T05:43:01.320Z,9.90
2019-02-27T05:45:32.938Z,10.77
2019-02-27T05:48:03.265Z,9.63
2019-02-27T05:50:35.356Z,10.75
2019-02-27T05:53:05.697Z,13.23
2019-02-27T05:55:39.024Z,9.65
2019-02-27T05:58:12.690Z,10.15
2019-02-27T06:00:43.369Z,8.83
2019-02-27T06:03:18.293Z,8.90
2019-02-27T06:05:49.760Z,11.80
2019-02-27T06:08:20.247Z,13.37
2019-02-27T06:11:21.347Z,9.50
2019-02-27T06:13:32.171Z,9.17
2019-02-27T06:16:09.421Z,12.17
2019-02-27T06:18:39.886Z,10.30
2019-02-27T06:21:26.259Z,9.60
2019-02-27T06:23:56.895Z,10.32
2019-02-27T06:26:32.325Z,8.77
2019-02-27T06:29:01.980Z,13.50
2019-02-27T06:31:36.821Z,10.27
2019-02-27T06:34:07.980Z,10.30
2019-02-27T06:36:42.791Z,9.88
2019-02-27T06:39:12.121Z,14.20
2019-02-27T06:42:02.636Z,9.30
2019-02-27T06:44:29.661Z,11.57
2019-02-27T06:47:10.591Z,8.73
2019-02-27T06:49:51.963Z,15.47
2019-02-27T06:52:23.228Z,12.10
2019-02-27T06:54:54.107Z,10.40
2019-02-27T06:57:24.410Z,9.13
2019-02-27T06:59:57.485Z,10.30
2019-02-27T07:02:29.877Z,15.00
2019-02-27T07:05:00.666Z,17.00
2019-02-27T07:07:31.279Z,14.37
2019-02-27T07:10:05.297Z,15.00
2019-02-27T07:12:35.891Z,10.13
2019-02-27T07:15:07.302Z,11.93
2019-02-27T07:17:37.638Z,18.17
2019-02-27T07:20:10.079Z,10.94
2019-02-27T07:22:53.852Z,11.43
2019-02-27T07:25:17.890Z,12.90
2019-02-27T07:28:00.388Z,14.67
2019-02-27T07:30:34.511Z,12.50
2019-02-27T07:33:06.689Z,14.97
2019-02-27T07:35:40.194Z,10.73
2019-02-27T07:38:10.625Z,10.40
2019-02-27T07:40:43.530Z,11.27
2019-02-27T07:43:15.866Z,13.58
2019-02-27T07:45:46.219Z,11.23
2019-02-27T07:48:19.858Z,12.80
2019-02-27T07:50:50.482Z,10.73
2019-02-27T07:53:20.840Z,16.10
2019-02-27T07:55:54.048Z,17.60
2019-02-27T07:58:29.280Z,15.20
2019-02-27T08:00:58.954Z,11.60
2019-02-27T08:03:39.716Z,11.83
2019-02-27T08:06:14.286Z,15.57
2019-02-27T08:08:44.822Z,16.55
2019-02-27T08:11:19.335Z,14.37
2019-02-27T08:13:52.321Z,14.43
2019-02-27T08:16:23.853Z,14.30
2019-02-27T08:18:55.610Z,10.90
2019-02-27T08:21:26.441Z,9.53
2019-02-27T08:24:06.709Z,12.20
2019-02-27T08:26:36.411Z,9.50
2019-02-27T08:29:07.529Z,10.23
2019-02-27T08:32:02.066Z,10.28
2019-02-27T08:34:12.681Z,10.20
2019-02-27T08:36:44.172Z,10.50
2019-02-27T08:39:14.928Z,10.82
2019-02-27T08:41:54.155Z,13.35
2019-02-27T08:44:33.284Z,11.90
2019-02-27T08:47:01.169Z,11.40
2019-02-27T08:49:32.795Z,10.30
2019-02-27T08:52:15.626Z,10.05
2019-02-27T08:54:45.493Z,9.50
2019-02-27T08:57:15.923Z,12.90
2019-02-27T08:59:50.813Z,11.90
2019-02-27T09:02:21.289Z,10.07
2019-02-27T09:04:55.594Z,9.53
2019-02-27T09:07:30.210Z,10.43
2019-02-27T09:10:00.854Z,10.17
2019-02-27T09:12:31.349Z,10.43
2019-02-27T09:15:02.028Z,12.03
2019-02-27T09:17:33.173Z,10.03
2019-02-27T09:20:06.941Z,11.97
2019-02-27T09:22:37.666Z,13.63
2019-02-27T09:25:12.530Z,9.23
2019-02-27T09:27:44.022Z,9.13
2019-02-27T09:30:15.608Z,8.93
2019-02-27T09:32:47.680Z,10.17
2019-02-27T09:35:18.489Z,10.47
2019-02-27T09:37:52.450Z,8.10
2019-02-27T09:40:30.011Z,11.03
2019-02-27T09:43:00.647Z,9.73
2019-02-27T09:45:35.357Z,8.80
2019-02-27T09:48:05.318Z,9.40
2019-02-27T09:50:39.226Z,7.97
2019-02-27T09:53:17.575Z,9.93
2019-02-27T09:55:48.107Z,8.90
2019-02-27T09:58:18.958Z,7.87
2019-02-27T10:00:52.417Z,6.80
2019-02-27T10:03:22.953Z,8.63
2019-02-27T10:05:56.232Z,7.87
2019-02-27T10:08:28.361Z,7.50
2019-02-27T10:10:58.793Z,9.10
2019-02-27T10:13:35.451Z,11.03
2019-02-27T10:16:05.355Z,10.18
2019-02-27T10:18:36.273Z,7.05
2019-02-27T10:21:09.377Z,7.92
2019-02-27T10:23:39.414Z,9.60
2019-02-27T10:26:10.008Z,10.25
2019-02-27T10:28:40.915Z,8.25
2019-02-27T10:31:15.667Z,9.54
2019-02-27T10:33:50.997Z,7.33
2019-02-27T10:36:21.685Z,11.10
2019-02-27T10:38:53.235Z,8.05
2019-02-27T10:41:44.934Z,9.40
2019-02-27T10:44:20.071Z,7.40
2019-02-27T10:46:43.547Z,8.33
2019-02-27T10:49:15.886Z,7.50
2019-02-27T10:51:59.091Z,8.93
2019-02-27T10:54:29.720Z,10.67
2019-02-27T10:57:14.052Z,12.90
2019-02-27T10:59:48.210Z,12.98
2019-02-27T11:02:20.325Z,10.90
2019-02-27T11:05:08.748Z,11.30
2019-02-27T11:07:39.608Z,10.30
2019-02-27T11:10:13.650Z,10.38
2019-02-27T11:12:51.233Z,12.24
2019-02-27T11:15:41.384Z,15.40
2019-02-27T11:18:06.352Z,11.73
2019-02-27T11:20:42.290Z,12.36
2019-02-27T11:23:13.097Z,11.73
2019-02-27T11:25:44.736Z,15.28
2019-02-27T11:28:15.130Z,11.60
2019-02-27T11:30:46.537Z,14.17
2019-02-27T11:33:25.554Z,10.85
2019-02-27T11:35:53.377Z,12.93
2019-02-27T11:38:24.804Z,8.90
2019-02-27T11:41:00.502Z,11.12
2019-02-27T11:43:31.402Z,10.18
2019-02-27T11:46:02.079Z,9.23
2019-02-27T11:48:34.129Z,9.87
2019-02-27T11:51:04.560Z,9.68
2019-02-27T11:53:36.574Z,12.33
2019-02-27T11:56:07.140Z,12.00
2019-02-27T11:58:43.793Z,10.58
2019-02-27T12:01:21.867Z,8.13
2019-02-27T12:03:50.568Z,7.53
2019-02-27T12:06:21.480Z,10.00
2019-02-27T12:09:04.422Z,8.30
2019-02-27T12:11:36.483Z,6.57
2019-02-27T12:14:09.894Z,9.10
2019-02-27T12:16:43.324Z,9.40
2019-02-27T12:19:14.415Z,10.98
2019-02-27T12:21:45.920Z,10.98
2019-02-27T12:24:27.417Z,10.10
2019-02-27T12:26:53.254Z,11.08
2019-02-27T12:29:35.454Z,12.25
2019-02-27T12:31:55.783Z,13.95
2019-02-27T12:34:26.633Z,11.65
2019-02-27T12:36:59.750Z,9.17
2019-02-27T12:39:30.623Z,13.43
2019-02-27T12:42:04.137Z,10.53
2019-02-27T12:44:39.532Z,9.88
2019-02-27T12:47:11.189Z,12.73
2019-02-27T12:49:41.779Z,8.13
2019-02-27T12:52:24.079Z,8.85
2019-02-27T12:54:53.088Z,9.30
2019-02-27T12:57:26.645Z,10.67
2019-02-27T13:00:01.241Z,11.43
2019-02-27T13:02:35.615Z,15.48
2019-02-27T13:05:06.750Z,13.90
2019-02-27T13:07:37.339Z,15.67
2019-02-27T13:10:09.935Z,10.08
2019-02-27T13:12:41.630Z,10.03
2019-02-27T13:15:16.878Z,14.00
2019-02-27T13:17:49.119Z,13.15
2019-02-27T13:20:21.951Z,12.40
2019-02-27T13:22:52.392Z,12.53
2019-02-27T13:25:25.685Z,12.94
2019-02-27T13:27:56.601Z,16.50
2019-02-27T13:30:27.023Z,17.77
2019-02-27T13:33:06.667Z,14.93
2019-02-27T13:35:37.736Z,16.35
2019-02-27T13:38:08.130Z,17.02
2019-02-27T13:40:41.050Z,12.77
2019-02-27T13:43:11.355Z,13.83
2019-02-27T13:45:41.929Z,14.35
2019-02-27T13:48:12.557Z,11.83
2019-02-27T13:50:44.188Z,13.20
2019-02-27T13:53:16.452Z,10.60
2019-02-27T13:55:50.455Z,10.92
2019-02-27T13:58:23.101Z,14.25
2019-02-27T14:01:44.709Z,16.07
2019-02-27T14:03:28.741Z,13.75
2019-02-27T14:06:09.005Z,17.63
2019-02-27T14:08:33.333Z,14.25
2019-02-27T14:11:06.389Z,18.70
2019-02-27T14:13:36.674Z,15.57
2019-02-27T14:16:11.848Z,15.40
2019-02-27T14:18:55.994Z,15.85
2019-02-27T14:21:24.952Z,17.80
2019-02-27T14:23:57.016Z,11.97
2019-02-27T14:26:29.676Z,10.60
2019-02-27T14:28:59.985Z,13.40
2019-02-27T14:31:32.094Z,11.43
2019-02-27T14:34:02.508Z,9.63
2019-02-27T14:36:49.061Z,9.88
2019-02-27T14:39:21.220Z,11.48
2019-02-27T14:41:53.177Z,11.35
2019-02-27T14:44:24.165Z,11.28
2019-02-27T14:46:56.090Z,13.13
2019-02-27T14:49:31.204Z,10.65
2019-02-27T14:52:01.712Z,10.28
2019-02-27T14:54:33.584Z,13.18
2019-02-27T14:57:04.352Z,10.73
2019-02-27T14:59:34.940Z,10.70
2019-02-27T15:02:08.720Z,8.30
2019-02-27T15:04:42.281Z,6.97
2019-02-27T15:07:14.473Z,10.00
2019-02-27T15:09:50.309Z,8.08
2019-02-27T15:12:23.281Z,8.37
2019-02-27T15:14:53.907Z,9.87
2019-02-27T15:17:24.411Z,14.67
2019-02-27T15:19:55.290Z,7.97
2019-02-27T15:22:26.538Z,12.43
2019-02-27T15:25:00.283Z,6.40
2019-02-27T15:27:30.664Z,6.40
2019-02-27T15:30:02.837Z,6.63
2019-02-27T15:32:36.398Z,9.53
2019-02-27T15:35:07.694Z,7.65
2019-02-27T15:37:49.577Z,13.00
2019-02-27T15:40:16.998Z,7.10
2019-02-27T15:42:47.703Z,5.90
2019-02-27T15:45:21.844Z,6.33
2019-02-27T15:47:52.512Z,7.25
2019-02-27T15:50:30.162Z,7.60
2019-02-27T15:53:14.989Z,6.87
2019-02-27T15:55:37.977Z,8.73
2019-02-27T15:58:08.555Z,10.67
2019-02-27T16:00:42.568Z,13.18
2019-02-27T16:03:12.892Z,10.58
2019-02-27T16:05:55.457Z,11.33
2019-02-27T16:08:27.130Z,9.60
2019-02-27T16:10:57.423Z,11.43
2019-02-27T16:13:35.423Z,9.58
2019-02-27T16:16:13.374Z,10.90
2019-02-27T16:18:45.937Z,9.05
2019-02-27T16:21:17.535Z,9.75
2019-02-27T16:23:52.798Z,8.03
2019-02-27T16:26:27.023Z,9.10
2019-02-27T16:29:02.646Z,10.30
2019-02-27T16:31:37.173Z,9.20
2019-02-27T16:34:07.714Z,9.00
2019-02-27T16:36:39.743Z,8.63
2019-02-27T16:39:10.818Z,9.65
2019-02-27T16:41:47.842Z,9.40
2019-02-27T16:44:21.435Z,11.75
2019-02-27T16:46:52.333Z,10.67
2019-02-27T16:49:28.440Z,9.70
2019-02-27T16:51:58.884Z,9.13
2019-02-27T16:54:29.500Z,10.70
2019-02-27T16:57:02.443Z,9.77
2019-02-27T16:59:34.449Z,8.87
2019-02-27T17:02:08.563Z,6.90
2019-02-27T17:04:39.149Z,8.27
2019-02-27T17:07:09.752Z,8.20
2019-02-27T17:10:29.192Z,8.90
2019-02-27T17:12:28.283Z,9.18
2019-02-27T17:15:09.673Z,10.57
2019-02-27T17:17:36.448Z,12.30
2019-02-27T17:20:12.691Z,11.48
2019-02-27T17:22:44.935Z,9.60
2019-02-27T17:25:15.588Z,7.65
2019-02-27T17:27:49.816Z,10.50
2019-02-27T17:30:36.594Z,7.37
2019-02-27T17:33:18.168Z,8.30
2019-02-27T17:35:46.888Z,8.23
2019-02-27T17:38:17.930Z,9.85
2019-02-27T17:40:50.213Z,10.20
2019-02-27T17:43:20.798Z,7.73
2019-02-27T17:45:55.160Z,9.05
2019-02-27T17:48:25.851Z,7.17
2019-02-27T17:50:58.155Z,8.37
2019-02-27T17:53:30.001Z,8.00
2019-02-27T17:56:02.070Z,6.87
2019-02-27T17:58:38.524Z,7.77
2019-02-27T18:01:09.861Z,10.10
2019-02-27T18:03:43.576Z,7.60
2019-02-27T18:06:20.868Z,7.60
2019-02-27T18:08:52.398Z,11.20
2019-02-27T18:11:24.387Z,8.38
2019-02-27T18:13:57.992Z,9.47
2019-02-27T18:16:29.959Z,7.27
2019-02-27T18:19:04.324Z,8.10
2019-02-27T18:21:36.292Z,7.83
2019-02-27T18:24:19.500Z,8.85
2019-02-27T18:26:56.449Z,10.32
2019-02-27T18:29:31.245Z,10.87
2019-02-27T18:32:06.115Z,8.03
2019-02-27T18:34:42.632Z,8.13
2019-02-27T18:37:14.532Z,7.33
2019-02-27T18:39:45.151Z,7.40
2019-02-27T18:42:20.697Z,9.90
2019-02-27T18:44:50.956Z,10.47
2019-02-27T18:47:25.484Z,10.35
2019-02-27T18:49:55.807Z,11.77
2019-02-27T18:52:26.475Z,9.98
2019-02-27T18:55:04.175Z,9.07
2019-02-27T18:57:35.083Z,11.03
2019-02-27T19:00:07.783Z,14.80
2019-02-27T19:03:11.394Z,11.53
2019-02-27T19:05:22.366Z,11.60
2019-02-27T19:07:55.253Z,13.73
2019-02-27T19:10:29.834Z,12.10
2019-02-27T19:13:01.068Z,16.25
2019-02-27T19:15:33.134Z,12.57
2019-02-27T19:18:06.629Z,11.08
2019-02-27T19:20:37.388Z,10.13
2019-02-27T19:23:17.088Z,12.28
2019-02-27T19:25:43.635Z,13.00
2019-02-27T19:28:14.006Z,11.00
2019-02-27T19:30:44.392Z,14.30
2019-02-27T19:33:15.022Z,11.50
2019-02-27T19:35:46.846Z,12.97
2019-02-27T19:38:17.467Z,12.35
2019-02-27T19:40:52.138Z,12.53
2019-02-27T19:43:24.046Z,14.94
2019-02-27T19:45:56.031Z,12.23
2019-02-27T19:48:30.585Z,13.53
2019-02-27T19:51:00.907Z,13.73
2019-02-27T19:53:34.346Z,13.13
2019-02-27T19:56:04.823Z,13.83
2019-02-27T19:58:35.841Z,14.13
2019-02-27T20:01:11.334Z,12.50
2019-02-27T20:03:41.957Z,16.00
2019-02-27T20:06:13.570Z,15.40
2019-02-27T20:08:45.397Z,12.00
2019-02-27T20:11:17.538Z,12.68
2019-02-27T20:13:49.513Z,13.97
2019-02-27T20:16:21.702Z,14.46
2019-02-27T20:19:00.582Z,13.97
2019-02-27T20:21:31.643Z,12.97
2019-02-27T20:24:14.082Z,15.30
2019-02-27T20:26:44.417Z,13.00
2019-02-27T20:29:14.777Z,12.33
2019-02-27T20:31:48.379Z,15.10
2019-02-27T20:34:18.955Z,11.37
2019-02-27T20:36:49.319Z,11.60
2019-02-27T20:39:24.399Z,11.97
2019-02-27T20:41:54.846Z,10.43
2019-02-27T20:44:30.639Z,12.03
2019-02-27T20:47:08.134Z,12.00
2019-02-27T20:49:38.760Z,12.33
2019-02-27T20:52:14.512Z,15.70
2019-02-27T20:54:41.145Z,22.87
2019-02-27T20:57:11.528Z,14.07
2019-02-27T20:59:42.137Z,15.23
2019-02-27T21:02:12.765Z,16.40
2019-02-27T21:04:44.891Z,16.13
2019-02-27T21:07:22.039Z,14.83
2019-02-27T21:09:49.777Z,19.83
2019-02-27T21:12:24.318Z,20.90
2019-02-27T21:14:57.931Z,16.70
2019-02-27T21:17:32.706Z,16.30
2019-02-27T21:20:04.530Z,13.57
2019-02-27T21:22:35.032Z,17.00
2019-02-27T21:25:12.076Z,16.00
2019-02-27T21:27:52.551Z,16.13
2019-02-27T21:30:19.103Z,16.00
2019-02-27T21:32:50.960Z,16.50
2019-02-27T21:35:28.619Z,20.77
2019-02-27T21:37:57.594Z,25.32
2019-02-27T21:40:33.456Z,23.20
2019-02-27T21:43:13.713Z,15.60
2019-02-27T21:45:54.412Z,18.33
2019-02-27T21:48:26.715Z,19.47
2019-02-27T21:50:57.127Z,18.30
2019-02-27T21:53:30.087Z,21.40
2019-02-27T21:56:07.196Z,26.70
2019-02-27T21:58:37.948Z,21.93
2019-02-27T22:01:08.248Z,17.50
2019-02-27T22:03:50.095Z,20.05
2019-02-27T22:06:10.910Z,17.57
2019-02-27T22:08:42.722Z,20.38
2019-02-27T22:11:14.908Z,21.90
2019-02-27T22:13:46.940Z,20.43
2019-02-27T22:16:17.462Z,24.17
2019-02-27T22:18:51.152Z,25.10
2019-02-27T22:21:22.790Z,21.65
2019-02-27T22:23:55.119Z,25.93
2019-02-27T22:26:25.519Z,18.97
2019-02-27T22:28:56.120Z,23.40
2019-02-27T22:31:27.777Z,25.43
2019-02-27T22:33:59.395Z,22.97
2019-02-27T22:36:29.800Z,27.93
2019-02-27T22:39:01.185Z,28.53
2019-02-27T22:41:35.171Z,26.70
2019-02-27T22:44:05.721Z,30.82
2019-02-27T22:46:36.101Z,32.30
2019-02-27T22:49:06.703Z,33.48
2019-02-27T22:51:38.356Z,28.60
2019-02-27T22:54:08.947Z,26.80
2019-02-27T22:56:40.257Z,29.30
2019-02-27T22:59:15.393Z,29.30
2019-02-27T23:01:50.948Z,29.97
2019-02-27T23:04:21.727Z,30.60
2019-02-27T23:06:55.904Z,32.63
2019-02-27T23:09:26.572Z,26.90
2019-02-27T23:11:57.149Z,27.85
2019-02-27T23:14:27.804Z,22.67
2019-02-27T23:17:00.630Z,29.90
2019-02-27T23:19:32.912Z,25.13
2019-02-27T23:22:05.155Z,23.57
2019-02-27T23:24:35.479Z,23.70
2019-02-27T23:27:05.825Z,24.10
2019-02-27T23:29:39.879Z,24.37
2019-02-27T23:32:10.500Z,21.15
2019-02-27T23:34:41.743Z,20.17
2019-02-27T23:37:12.897Z,24.87
2019-02-27T23:39:44.232Z,21.90
2019-02-27T23:42:14.849Z,21.65
2019-02-27T23:44:45.560Z,27.30
2019-02-27T23:47:19.406Z,22.70
2019-02-27T23:49:49.737Z,29.43
2019-02-27T23:52:22.382Z,26.10
2019-02-27T23:54:53.339Z,25.40
2019-02-27T23:57:25.324Z,25.57
2019-02-27T23:59:56.449Z,22.73
